M I D A S
Marine Information and Data Acquisition System
Tripno 651 of the Zeeleeuw from 2004-02-18 07:12:45 to 2004-02-18 11:52:08
Back to CruiseResearch ActivitiesStationsMapUnderway DataData graphs

EquipmentUnitsComment
TimeDGPSUTC
LatitudeDGPSDM.mWGS84
LongitudeDGPSDM.mWGS84
HeadingGyrodeg 
SOGDGPSknotsSpeed over ground
COGDGPSdegCourse over ground
DepthEcho soundermeters200 kHz
Missing or incorrect values are displayed as -999
Navigation data collected by the RV Zeeleeuw from 2004-02-18 07:12:45 to 2004-02-18 11:52:08
                                                                                    Next 1000 lines
Time Latitude Longitude Heading SOG COG Depth
2004-02-18 07:12:54 51°13.592 2°56.107 125.2   21 7
2004-02-18 07:12:59 51°13.592 2°56.107 124.8   201 7.1
2004-02-18 07:13:04 51°13.592 2°56.107 124.1 0.1 172 7.1
2004-02-18 07:13:09 51°13.592 2°56.107 122.8 0.1 182 7.1
2004-02-18 07:13:14 51°13.592 2°56.107 121.7 0.1 205 7.1
2004-02-18 07:13:19 51°13.592 2°56.107 120.7 0.1 197 7.1
2004-02-18 07:13:24 51°13.591 2°56.107 119.7 0.1 193 7.1
2004-02-18 07:13:28 51°13.591 2°56.107 118.7 0.1 213 7.2
2004-02-18 07:13:34 51°13.591 2°56.106 117.6 0.1 206 7.1
2004-02-18 07:13:38 51°13.591 2°56.106 116.8 0.1 255 7.1
2004-02-18 07:13:44 51°13.592 2°56.106 116.1 0.3 295 7.1
2004-02-18 07:13:48 51°13.592 2°56.105 115.8 0.8 294 7.2
2004-02-18 07:13:54 51°13.592 2°56.102 115.8 1.2 294 7.1
2004-02-18 07:13:59 51°13.593 2°56.098 116.1 1.6 295 7.1
2004-02-18 07:14:04 51°13.594 2°56.094 116.2 2.2 294 7.1
2004-02-18 07:14:10 51°13.596 2°56.088 116.4 2.5 294 -999
2004-02-18 07:14:14 51°13.597 2°56.083 116.7 2.9 293 -999
2004-02-18 07:14:20 51°13.599 2°56.075 116.7 3.2 293 -999
2004-02-18 07:14:25 51°13.601 2°56.068 116.7 3.4 292 -999
2004-02-18 07:14:30 51°13.603 2°56.061 116.6 3.5 292 -999
2004-02-18 07:14:34 51°13.605 2°56.055 116.7 3.7 291 -999
2004-02-18 07:14:40 51°13.607 2°56.045 117.1 3.9 291 -999
2004-02-18 07:14:45 51°13.609 2°56.037 117.9 4 292 -999
2004-02-18 07:14:50 51°13.612 2°56.028 119.6 4.1 293 -999
2004-02-18 07:14:54 51°13.614 2°56.021 121.8 4.2 295 -999
2004-02-18 07:15:00 51°13.618 2°56.011 123.6 4.5 299 -999
2004-02-18 07:15:05 51°13.621 2°56.002 125.7 4.6 300 -999
2004-02-18 07:15:10 51°13.625 2°55.994 127.3 4.6 303 5
2004-02-18 07:15:14 51°13.628 2°55.987 128.9 4.7 305 5
2004-02-18 07:15:20 51°13.632 2°55.977 130.6 4.6 307 -999
2004-02-18 07:15:25 51°13.636 2°55.97 132.7 4.3 310 -999
2004-02-18 07:15:30 51°13.64 2°55.964 134.1 4.1 311 -999
2004-02-18 07:15:34 51°13.642 2°55.959 134.9 3.6 311 -999
2004-02-18 07:15:39 51°13.644 2°55.955 134.3 2.5 308 10.1
2004-02-18 07:15:44 51°13.646 2°55.952 132.2 2 314 9.7
2004-02-18 07:15:49 51°13.648 2°55.949 129.9 2.1 308 9.7
2004-02-18 07:15:54 51°13.65 2°55.944 128.6 2.3 307 9.7
2004-02-18 07:15:59 51°13.652 2°55.94 127.2 2.5 307 9.4
2004-02-18 07:16:04 51°13.654 2°55.934 125.6 2.9 303 5.1
2004-02-18 07:16:10 51°13.657 2°55.927 124.1 3 301 -999
2004-02-18 07:16:14 51°13.658 2°55.922 122.4 3.2 300 -999
2004-02-18 07:16:20 51°13.661 2°55.914 121.1 3.4 299 -999
2004-02-18 07:16:25 51°13.663 2°55.907 119.5 3.6 297 -999
2004-02-18 07:16:30 51°13.666 2°55.899 117.5 3.7 295 -999
2004-02-18 07:16:34 51°13.667 2°55.893 115.7 3.9 293 -999
2004-02-18 07:16:40 51°13.67 2°55.883 113.9 4 290 -999
2004-02-18 07:16:45 51°13.671 2°55.874 111.9 4.1 288 -999
2004-02-18 07:16:50 51°13.673 2°55.865 110.5 4.2 286 -999
2004-02-18 07:16:54 51°13.674 2°55.858 109.5 4.3 286 -999
2004-02-18 07:17:00 51°13.676 2°55.847 109.1 4.4 285 -999
2004-02-18 07:17:05 51°13.678 2°55.837 108.6 4.5 284 -999
2004-02-18 07:17:10 51°13.679 2°55.827 108.2 4.6 283 -999
2004-02-18 07:17:15 51°13.68 2°55.817 107.9 4.6 283 -999
2004-02-18 07:17:20 51°13.682 2°55.807 107.6 4.7 282 -999
2004-02-18 07:17:25 51°13.683 2°55.797 107.4 4.7 282 -999
2004-02-18 07:17:30 51°13.684 2°55.787 107.2 4.8 281 -999
2004-02-18 07:17:34 51°13.686 2°55.779 106.9 4.7 282 -999
2004-02-18 07:17:40 51°13.687 2°55.767 107.2 4.4 281 -999
2004-02-18 07:17:45 51°13.688 2°55.76 107.6 3.6 280 -999
2004-02-18 07:17:50 51°13.688 2°55.755 107.6 2.8 277 -999
2004-02-18 07:17:54 51°13.689 2°55.753 105.7 1.7 277 13.6
2004-02-18 07:17:58 51°13.689 2°55.753 102.8 0.2 274 13.5
2004-02-18 07:18:04 51°13.688 2°55.755 97.9 0.9 87 13.7
2004-02-18 07:18:09 51°13.689 2°55.759 91.1 1.5 84 13.7
2004-02-18 07:18:14 51°13.69 2°55.763 82.8 2 76 13.6
2004-02-18 07:18:19 51°13.691 2°55.769 74.3 2.5 71 13.7
2004-02-18 07:18:24 51°13.693 2°55.774 66.6 2.6 58 13.4
2004-02-18 07:18:28 51°13.694 2°55.778 61.9 2.4 60 13.4
2004-02-18 07:18:34 51°13.695 2°55.782 60.2 1.9 58 13
2004-02-18 07:18:40 51°13.696 2°55.783 57.5 1.2 58 12.7
2004-02-18 07:18:44 51°13.696 2°55.783 54 0.3 58 12.6
2004-02-18 07:18:49 51°13.695 2°55.782 50.7 0.6 226 12.7
2004-02-18 07:18:54 51°13.694 2°55.78 48.9 1.1 225 12.9
2004-02-18 07:18:59 51°13.692 2°55.777 47.6 1.6 223 5.1
2004-02-18 07:19:04 51°13.691 2°55.774 46.5 2 222 -999
2004-02-18 07:19:10 51°13.689 2°55.77 46.2 1.8 224 -999
2004-02-18 07:19:14 51°13.688 2°55.77 46.3 0.8 224 -999
2004-02-18 07:19:20 51°13.689 2°55.77 45 0.5 23 -999
2004-02-18 07:19:25 51°13.69 2°55.772 40 1.2 29 -999
2004-02-18 07:19:30 51°13.693 2°55.773 31.4 1.8 22 -999
2004-02-18 07:19:34 51°13.696 2°55.774 23.2 2.3 16 -999
2004-02-18 07:19:40 51°13.701 2°55.774 16.2 2.8 9 -999
2004-02-18 07:19:45 51°13.707 2°55.773 6.8 3.8 353 -999
2004-02-18 07:19:49 51°13.712 2°55.77 356.8 4.3 344 13.3
2004-02-18 07:19:54 51°13.718 2°55.765 345.4 4.7 336 12.7
2004-02-18 07:19:58 51°13.722 2°55.76 336.3 4.8 325 11.8
2004-02-18 07:20:04 51°13.728 2°55.752 328.7 4.8 323 10.7
2004-02-18 07:20:08 51°13.733 2°55.747 325.5 5 320 9.7
2004-02-18 07:20:14 51°13.739 2°55.738 325.1 5.2 321 9.5
2004-02-18 07:20:18 51°13.744 2°55.732 325.9 5.5 320 9.9
2004-02-18 07:20:24 51°13.751 2°55.722 326.1 5.8 321 9.5
2004-02-18 07:20:28 51°13.756 2°55.715 325.7 6 319 9.4
2004-02-18 07:20:34 51°13.764 2°55.705 325 6.1 320 9.5
2004-02-18 07:20:38 51°13.77 2°55.697 324.9 6.3 320 9.4
2004-02-18 07:20:44 51°13.778 2°55.687 325.6 6.5 321 9.6
2004-02-18 07:20:49 51°13.785 2°55.678 326.6 6.7 323 9.7
2004-02-18 07:20:54 51°13.793 2°55.669 327.3 6.7 323 9.8
2004-02-18 07:20:58 51°13.799 2°55.662 328.5 6.8 324 10
2004-02-18 07:21:04 51°13.809 2°55.651 329.6 7 326 10.4
2004-02-18 07:21:09 51°13.817 2°55.643 331.1 7.1 328 10.6
2004-02-18 07:21:14 51°13.825 2°55.635 332.5 7.2 329 10.5
2004-02-18 07:21:18 51°13.832 2°55.628 334 7.2 329 10.3
2004-02-18 07:21:24 51°13.843 2°55.619 335.5 7.3 332 10
2004-02-18 07:21:29 51°13.851 2°55.612 336.7 7.3 333 9.9
2004-02-18 07:21:34 51°13.861 2°55.605 338.2 7.3 333 10.3
2004-02-18 07:21:39 51°13.87 2°55.597 339.1 7.3 334 10.3
2004-02-18 07:21:44 51°13.879 2°55.59 339.6 7.4 334 9.7
2004-02-18 07:21:49 51°13.888 2°55.583 339.8 7.5 334 9.8
2004-02-18 07:21:54 51°13.898 2°55.576 340.2 7.5 335 9.7
2004-02-18 07:21:59 51°13.908 2°55.569 340.4 7.6 335 9.8
2004-02-18 07:22:04 51°13.918 2°55.562 340.8 7.9 336 10.1
2004-02-18 07:22:09 51°13.928 2°55.555 341.1 8.1 336 9.9
2004-02-18 07:22:14 51°13.939 2°55.548 341.6 8.2 336 10.1
2004-02-18 07:22:18 51°13.947 2°55.542 341.6 8.3 336 10.2
2004-02-18 07:22:24 51°13.96 2°55.533 341 8.4 336 9.7
2004-02-18 07:22:29 51°13.971 2°55.525 340.9 8.5 335 10.3
2004-02-18 07:22:34 51°13.982 2°55.517 340.9 8.6 335 9.8
2004-02-18 07:22:39 51°13.993 2°55.509 341 8.6 335 10.3
2004-02-18 07:22:44 51°14.004 2°55.501 341 8.7 335 9.6
2004-02-18 07:22:48 51°14.013 2°55.494 341 8.7 335 10.2
2004-02-18 07:22:54 51°14.026 2°55.484 341 8.8 335 10.2
2004-02-18 07:22:58 51°14.035 2°55.478 341.3 8.8 336 9.6
2004-02-18 07:23:04 51°14.049 2°55.469 341.9 8.9 337 9.2
2004-02-18 07:23:09 51°14.06 2°55.461 342.5 9 337 8.9
2004-02-18 07:23:14 51°14.071 2°55.452 342.7 9.1 336 8.9
2004-02-18 07:23:20 51°14.085 2°55.443 342.7 9.1 336 9.2
2004-02-18 07:23:24 51°14.095 2°55.436 342.4 9.2 337 9.2
2004-02-18 07:23:29 51°14.107 2°55.428 342.5 9.3 337 9.3
2004-02-18 07:23:34 51°14.119 2°55.42 342.5 9.3 337 9.6
2004-02-18 07:23:39 51°14.131 2°55.411 342.2 9.4 336 9.9
2004-02-18 07:23:44 51°14.143 2°55.403 341.8 9.5 336 10.2
2004-02-18 07:23:49 51°14.155 2°55.393 341.2 9.5 335 10.3
2004-02-18 07:23:54 51°14.167 2°55.384 340.1 9.6 334 10.2
2004-02-18 07:23:58 51°14.176 2°55.375 338.2 9.9 331 10.2
2004-02-18 07:24:04 51°14.191 2°55.361 335.8 10 329 9.9
2004-02-18 07:24:09 51°14.202 2°55.349 334.5 10.1 328 10.3
2004-02-18 07:24:14 51°14.214 2°55.336 332.3 10.2 325 10.6
2004-02-18 07:24:19 51°14.225 2°55.322 330.2 10.3 324 10.6
2004-02-18 07:24:24 51°14.236 2°55.307 328.3 10.4 320 10.7
2004-02-18 07:24:29 51°14.247 2°55.291 326 10.5 318 10.5
2004-02-18 07:24:34 51°14.257 2°55.275 323.3 10.5 316 10.2
2004-02-18 07:24:38 51°14.265 2°55.261 320.3 10.7 314 10.3
2004-02-18 07:24:44 51°14.277 2°55.239 318.4 11.1 312 10.5
2004-02-18 07:24:48 51°14.286 2°55.224 317.1 11.2 310 10.7
2004-02-18 07:24:54 51°14.298 2°55.2 315.7 11.3 309 11.4
2004-02-18 07:24:58 51°14.306 2°55.185 314.6 11.5 308 10.6
2004-02-18 07:25:04 51°14.317 2°55.16 314 11.6 308 10.2
2004-02-18 07:25:09 51°14.327 2°55.139 313.2 11.7 307 10.7
2004-02-18 07:25:14 51°14.337 2°55.119 312.4 11.8 306 9.4
2004-02-18 07:25:19 51°14.346 2°55.097 311.6 11.9 305 5.7
2004-02-18 07:25:24 51°14.355 2°55.075 310.9 11.9 304 9.9
2004-02-18 07:25:29 51°14.364 2°55.053 309.9 12 302 10.4
2004-02-18 07:25:34 51°14.372 2°55.029 308.9 12 299 10.3
2004-02-18 07:25:40 51°14.379 2°55 305.5 12.1 294 10.4
2004-02-18 07:25:44 51°14.384 2°54.979 302.2 12.1 289 10.1
2004-02-18 07:25:49 51°14.388 2°54.953 298.1 12.2 286 10.2
2004-02-18 07:25:54 51°14.392 2°54.927 294.8 12.3 283 10.2
2004-02-18 07:25:58 51°14.394 2°54.906 291.2 12.4 282 10.1
2004-02-18 07:26:04 51°14.397 2°54.873 288.4 12.5 278 10.1
2004-02-18 07:26:09 51°14.4 2°54.845 285.9 12.5 277 10.3
2004-02-18 07:26:14 51°14.4 2°54.818 283.1 12.5 274 10.4
2004-02-18 07:26:18 51°14.4 2°54.795 279.3 12.7 269 10.6
2004-02-18 07:26:24 51°14.399 2°54.762 276.1 12.5 266 10.3
2004-02-18 07:26:29 51°14.397 2°54.736 273.1 12.1 266 10.3
2004-02-18 07:26:34 51°14.396 2°54.71 271.5 11.7 264 10.4
2004-02-18 07:26:39 51°14.394 2°54.686 270.4 11.4 264 10.5
2004-02-18 07:26:44 51°14.391 2°54.663 269.3 10.7 261 10.6
2004-02-18 07:26:48 51°14.389 2°54.645 268.3 10.3 259 10.5
2004-02-18 07:26:54 51°14.387 2°54.619 267 10.1 260 10.5
2004-02-18 07:26:58 51°14.384 2°54.602 266.3 9.9 259 10.4
2004-02-18 07:27:04 51°14.381 2°54.577 265.5 9.7 258 10.3
2004-02-18 07:27:08 51°14.379 2°54.561 265.7 9.3 259 10.2
2004-02-18 07:27:14 51°14.375 2°54.537 265.2 9.1 256 9.9
2004-02-18 07:27:18 51°14.373 2°54.522 264.9 8.9 255 9.7
2004-02-18 07:27:24 51°14.368 2°54.501 264.1 8.5 248 9.5
2004-02-18 07:27:29 51°14.364 2°54.484 258 8.4 246 9.4
2004-02-18 07:27:34 51°14.358 2°54.468 250.9 8.3 240 9.5
2004-02-18 07:27:40 51°14.35 2°54.45 246.5 8.2 237 9.5
2004-02-18 07:27:44 51°14.345 2°54.438 241.5 8.2 238 9.5
2004-02-18 07:27:49 51°14.34 2°54.422 242.3 8.1 235 9.5
2004-02-18 07:27:54 51°14.334 2°54.407 245 8 239 9.5
2004-02-18 07:27:58 51°14.329 2°54.395 246.5 8 241 9.4
2004-02-18 07:28:04 51°14.323 2°54.377 246.5 7.9 240 9.4
2004-02-18 07:28:08 51°14.319 2°54.365 247.4 8 242 9.5
2004-02-18 07:28:14 51°14.312 2°54.347 248.7 7.9 240 9.5
2004-02-18 07:28:20 51°14.306 2°54.328 248.3 8 243 9.3
2004-02-18 07:28:24 51°14.302 2°54.316 246.8 7.9 243 9.3
2004-02-18 07:28:29 51°14.297 2°54.3 248.6 7.9 245 9.3
2004-02-18 07:28:34 51°14.293 2°54.284 251.8 7.8 244 9.3
2004-02-18 07:28:38 51°14.29 2°54.272 253.1 7.8 247 9.3
2004-02-18 07:28:44 51°14.285 2°54.252 254.8 7.8 249 9.3
2004-02-18 07:28:48 51°14.282 2°54.239 256.4 7.8 248 9.3
2004-02-18 07:28:54 51°14.277 2°54.22 256.8 7.8 249 9.4
2004-02-18 07:28:58 51°14.273 2°54.208 256.5 7.6 245 9.4
2004-02-18 07:29:04 51°14.269 2°54.191 256.4 7.3 245 9.2
2004-02-18 07:29:09 51°14.265 2°54.176 255.3 6.9 246 9.1
2004-02-18 07:29:14 51°14.261 2°54.162 255.5 6.8 247 9.2
2004-02-18 07:29:19 51°14.258 2°54.149 255.8 6.7 247 9.2
2004-02-18 07:29:24 51°14.254 2°54.136 256.3 6.3 248 9.3
2004-02-18 07:29:28 51°14.252 2°54.126 257 6.2 248 9.3
2004-02-18 07:29:34 51°14.248 2°54.111 257.9 6 247 9.4
2004-02-18 07:29:38 51°14.246 2°54.101 259.4 5.8 247 9.3
2004-02-18 07:29:44 51°14.242 2°54.087 261 5.6 250 9.2
2004-02-18 07:29:48 51°14.241 2°54.078 262.2 5.4 251 9.2
2004-02-18 07:29:54 51°14.238 2°54.065 263.8 5.3 253 9.2
2004-02-18 07:29:58 51°14.236 2°54.056 265.5 5.1 253 9.2
2004-02-18 07:30:04 51°14.234 2°54.044 266.4 4.9 253 9.3
2004-02-18 07:30:09 51°14.232 2°54.034 267.5 4.8 255 9.4
2004-02-18 07:30:14 51°14.23 2°54.024 268.7 4.7 253 9.4
2004-02-18 07:30:18 51°14.228 2°54.017 269.8 4.5 254 9.4
2004-02-18 07:30:24 51°14.227 2°54.006 271.4 4.2 255 9.4
2004-02-18 07:30:29 51°14.225 2°53.997 272.1 4.1 255 9.3
2004-02-18 07:30:34 51°14.224 2°53.988 272.9 4.1 258 9.3
2004-02-18 07:30:38 51°14.223 2°53.981 273.6 4 257 9.4
2004-02-18 07:30:44 51°14.221 2°53.971 274.3 3.9 257 9.4
2004-02-18 07:30:49 51°14.22 2°53.963 275 3.8 255 9.4
2004-02-18 07:30:54 51°14.219 2°53.955 275.2 3.6 258 9.5
2004-02-18 07:30:58 51°14.218 2°53.949 275.5 3.6 255 9.4
2004-02-18 07:31:04 51°14.216 2°53.94 275.8 3.5 255 9.4
2004-02-18 07:31:09 51°14.215 2°53.933 276.1 3.4 255 9.4
2004-02-18 07:31:14 51°14.214 2°53.926 276.5 3.3 252 9.4
2004-02-18 07:31:19 51°14.212 2°53.919 276.6 3.2 251 9.4
2004-02-18 07:31:24 51°14.211 2°53.912 276.3 3.3 249 9.3
2004-02-18 07:31:28 51°14.21 2°53.907 276.1 3.1 250 9.4
2004-02-18 07:31:34 51°14.209 2°53.9 276.3 3 254 9.2
2004-02-18 07:31:38 51°14.208 2°53.895 275.9 2.9 252 9.2
2004-02-18 07:31:44 51°14.206 2°53.887 275.8 2.9 252 9.2
2004-02-18 07:31:48 51°14.205 2°53.883 275.7 2.8 253 9.4
2004-02-18 07:31:54 51°14.203 2°53.875 275.8 2.9 248 9.4
2004-02-18 07:31:58 51°14.202 2°53.87 275.7 3.2 248 9.5
2004-02-18 07:32:04 51°14.2 2°53.861 275.6 3.4 252 9.4
2004-02-18 07:32:09 51°14.199 2°53.853 272.6 3.9 249 9.2
2004-02-18 07:32:14 51°14.196 2°53.844 268.1 4.2 250 9.2
2004-02-18 07:32:19 51°14.194 2°53.835 263.1 4.7 249 9.2
2004-02-18 07:32:24 51°14.191 2°53.823 258.2 5.7 243 9.2
2004-02-18 07:32:28 51°14.188 2°53.813 254.5 6.4 245 9.3
2004-02-18 07:32:34 51°14.182 2°53.796 251.9 7 242 9.4
2004-02-18 07:32:39 51°14.177 2°53.781 252.2 7.6 245 9.5
2004-02-18 07:32:44 51°14.172 2°53.763 252.2 8.9 243 9.4
2004-02-18 07:32:49 51°14.167 2°53.744 251.9 9.6 248 9.6
2004-02-18 07:32:54 51°14.161 2°53.724 253.1 10.1 245 9.6
2004-02-18 07:32:58 51°14.156 2°53.706 253.7 10.6 247 9.4
2004-02-18 07:33:04 51°14.148 2°53.679 252.8 11.1 247 9.4
2004-02-18 07:33:08 51°14.144 2°53.659 253 12 249 9.5
2004-02-18 07:33:14 51°14.135 2°53.629 252.9 12.5 245 9.4
2004-02-18 07:33:18 51°14.13 2°53.608 253.5 12.6 249 9.5
2004-02-18 07:33:24 51°14.121 2°53.576 253.5 13.1 245 9.6
2004-02-18 07:33:29 51°14.115 2°53.548 253 13.5 249 9.5
2004-02-18 07:33:34 51°14.107 2°53.52 254.3 13.7 248 9.5
2004-02-18 07:33:38 51°14.102 2°53.497 253.1 13.8 247 9.6
2004-02-18 07:33:44 51°14.092 2°53.463 253.8 14 245 9.6
2004-02-18 07:33:48 51°14.086 2°53.441 252.1 14.2 244 9.6
2004-02-18 07:33:54 51°14.075 2°53.406 250.4 14.3 245 9.6
2004-02-18 07:33:58 51°14.067 2°53.384 249.6 14.4 241 9.7
2004-02-18 07:34:04 51°14.057 2°53.35 247.7 14.4 239 9.6
2004-02-18 07:34:09 51°14.046 2°53.322 246 14.4 242 9.6
2004-02-18 07:34:14 51°14.037 2°53.295 247.3 14.4 242 9.6
2004-02-18 07:34:19 51°14.027 2°53.267 245.3 14.5 238 9.6
2004-02-18 07:34:24 51°14.016 2°53.239 243.8 14.5 242 9.7
2004-02-18 07:34:28 51°14.009 2°53.217 246.2 14.4 237 9.6
2004-02-18 07:34:34 51°13.996 2°53.182 242.4 14.9 240 9.6
2004-02-18 07:34:38 51°13.989 2°53.159 247.9 14.6 240 9.6
2004-02-18 07:34:44 51°13.977 2°53.125 246.6 14.8 241 9.7
2004-02-18 07:34:48 51°13.97 2°53.101 247.5 14.7 243 9.8
2004-02-18 07:34:54 51°13.958 2°53.068 248.1 14.6 241 10
2004-02-18 07:34:58 51°13.95 2°53.045 246.7 14.8 241 10
2004-02-18 07:35:04 51°13.939 2°53.01 247.5 14.7 243 10
2004-02-18 07:35:09 51°13.928 2°52.982 245.6 15.1 238 10
2004-02-18 07:35:14 51°13.919 2°52.952 245.6 14.9 245 10.1
2004-02-18 07:35:18 51°13.91 2°52.931 248 15 237 10.1
2004-02-18 07:35:24 51°13.899 2°52.895 244.4 14.8 245 10
2004-02-18 07:35:29 51°13.889 2°52.867 248.2 14.8 239 10.1
2004-02-18 07:35:34 51°13.879 2°52.837 245.3 15.1 242 10.1
2004-02-18 07:35:38 51°13.872 2°52.814 247.6 15 244 10.2
2004-02-18 07:35:44 51°13.86 2°52.779 248.4 15 241 10.2
2004-02-18 07:35:48 51°13.852 2°52.756 245.9 15 243 10.2
2004-02-18 07:35:54 51°13.841 2°52.721 248.5 14.7 242 10.3
2004-02-18 07:35:58 51°13.833 2°52.698 246.5 14.9 239 10.3
2004-02-18 07:36:04 51°13.821 2°52.662 246 15.3 243 10.2
2004-02-18 07:36:09 51°13.811 2°52.634 248.5 14.7 241 10.4
2004-02-18 07:36:14 51°13.801 2°52.605 246.3 14.9 240 10.4
2004-02-18 07:36:18 51°13.794 2°52.582 247.4 14.9 244 10.4
2004-02-18 07:36:24 51°13.781 2°52.547 247.9 14.9 242 10.3
2004-02-18 07:36:28 51°13.774 2°52.524 246.7 15 242 10.2
2004-02-18 07:36:34 51°13.762 2°52.489 246.8 14.9 242 10.4
2004-02-18 07:36:39 51°13.752 2°52.461 247.7 14.8 242 10.4
2004-02-18 07:36:44 51°13.742 2°52.431 245.5 15.1 244 10.4
2004-02-18 07:36:48 51°13.734 2°52.408 246.9 15 241 10.5
2004-02-18 07:36:54 51°13.723 2°52.373 247.2 14.8 244 10.6
2004-02-18 07:36:58 51°13.715 2°52.351 247.5 14.7 240 10.5
2004-02-18 07:37:04 51°13.703 2°52.315 246.6 15.2 241 10.5
2004-02-18 07:37:09 51°13.695 2°52.285 248.6 14.7 245 10.6
2004-02-18 07:37:14 51°13.683 2°52.257 247.3 15.1 237 10.5
2004-02-18 07:37:18 51°13.678 2°52.232 247.6 15 247 10.5
2004-02-18 07:37:24 51°13.664 2°52.198 248.4 15 241 10.5
2004-02-18 07:37:29 51°13.655 2°52.168 246.3 14.9 243 10.5
2004-02-18 07:37:34 51°13.645 2°52.14 247.5 14.8 239 10.5
2004-02-18 07:37:39 51°13.635 2°52.111 246.1 14.9 244 10.5
2004-02-18 07:37:44 51°13.625 2°52.082 247.3 15 243 10.5
2004-02-18 07:37:49 51°13.616 2°52.052 247.1 14.9 243 10.6
2004-02-18 07:37:54 51°13.606 2°52.023 247.4 15.2 241 10.7
2004-02-18 07:37:58 51°13.599 2°51.999 247.7 15 245 10.7
2004-02-18 07:38:04 51°13.586 2°51.966 249.1 15.1 238 10.6
2004-02-18 07:38:08 51°13.578 2°51.941 245.3 15.1 243 10.6
2004-02-18 07:38:14 51°13.566 2°51.907 247.5 14.8 240 10.6
2004-02-18 07:38:18 51°13.557 2°51.885 244.8 15 236 10.5
2004-02-18 07:38:24 51°13.546 2°51.849 244.8 15 243 10.5
2004-02-18 07:38:29 51°13.535 2°51.821 246.9 14.9 239 10.5
2004-02-18 07:38:34 51°13.525 2°51.792 245 14.8 241 10.7
2004-02-18 07:38:39 51°13.514 2°51.765 246.4 14.8 241 10.6
2004-02-18 07:38:44 51°13.505 2°51.735 244.1 15.2 243 10.6
2004-02-18 07:38:49 51°13.494 2°51.706 246.6 15 240 10.6
2004-02-18 07:38:54 51°13.485 2°51.677 246.2 15.1 242 10.7
2004-02-18 07:38:58 51°13.477 2°51.654 246.7 14.8 242 10.7
2004-02-18 07:39:04 51°13.464 2°51.62 246.7 14.8 237 10.8
2004-02-18 07:39:09 51°13.454 2°51.591 244.8 15.1 242 10.6
2004-02-18 07:39:14 51°13.444 2°51.561 247 14.9 243 10.7
2004-02-18 07:39:18 51°13.436 2°51.539 245.7 14.9 239 10.8
2004-02-18 07:39:24 51°13.423 2°51.504 246.2 15.1 239 10.7
2004-02-18 07:39:29 51°13.414 2°51.474 244.7 15 245 10.8
2004-02-18 07:39:34 51°13.403 2°51.446 247.5 15 239 10.8
2004-02-18 07:39:39 51°13.395 2°51.417 246.3 14.8 243 10.9
2004-02-18 07:39:44 51°13.384 2°51.388 246.5 15 240 10.9
2004-02-18 07:39:49 51°13.375 2°51.358 246 15 245 10.8
2004-02-18 07:39:54 51°13.365 2°51.33 248.2 15 240 10.9
2004-02-18 07:39:58 51°13.359 2°51.305 248.4 14.9 247 10.7
2004-02-18 07:40:04 51°13.346 2°51.271 247.9 14.8 247 10.9
2004-02-18 07:40:08 51°13.34 2°51.247 249.7 14.6 243 10.9
2004-02-18 07:40:14 51°13.327 2°51.213 248.5 15 239 10.9
2004-02-18 07:40:18 51°13.321 2°51.189 248.4 14.9 248 10.8
2004-02-18 07:40:24 51°13.309 2°51.155 247.4 14.8 238 11
2004-02-18 07:40:28 51°13.302 2°51.131 248 14.7 243 11.1
2004-02-18 07:40:34 51°13.289 2°51.098 248.7 14.7 240 11
2004-02-18 07:40:38 51°13.282 2°51.074 245.3 14.9 242 11.1
2004-02-18 07:40:44 51°13.269 2°51.04 248.6 14.9 240 11.1
2004-02-18 07:40:48 51°13.263 2°51.016 246.8 14.7 243 11.1
2004-02-18 07:40:54 51°13.25 2°50.982 245.8 15 239 11.1
2004-02-18 07:40:58 51°13.244 2°50.958 246.7 14.9 245 11.2
2004-02-18 07:41:04 51°13.231 2°50.925 247.5 14.9 242 11.2
2004-02-18 07:41:08 51°13.224 2°50.901 246.5 14.8 243 11.2
2004-02-18 07:41:14 51°13.211 2°50.867 247.3 14.8 240 11.2
2004-02-18 07:41:19 51°13.202 2°50.837 245.7 15.1 241 11.2
2004-02-18 07:41:24 51°13.193 2°50.808 248.4 14.9 242 11.3
2004-02-18 07:41:28 51°13.185 2°50.785 248.2 15 242 11.3
2004-02-18 07:41:34 51°13.173 2°50.749 247.1 15 243 11.2
2004-02-18 07:41:38 51°13.166 2°50.726 248.1 14.7 244 11.3
2004-02-18 07:41:44 51°13.154 2°50.691 248 15 240 11.3
2004-02-18 07:41:48 51°13.148 2°50.667 247.9 15 246 11.3
2004-02-18 07:41:54 51°13.135 2°50.633 248.8 14.9 239 11.3
2004-02-18 07:41:58 51°13.128 2°50.609 247.6 14.9 242 11.3
2004-02-18 07:42:04 51°13.115 2°50.574 246.7 15.1 239 11.3
2004-02-18 07:42:09 51°13.107 2°50.545 248.2 14.4 241 11.3
2004-02-18 07:42:14 51°13.096 2°50.517 244.9 14.9 238 11.2
2004-02-18 07:42:18 51°13.089 2°50.493 245.3 15.1 246 11.3
2004-02-18 07:42:24 51°13.077 2°50.458 249.5 15 240 11.3
2004-02-18 07:42:29 51°13.068 2°50.428 247.3 14.9 245 11.4
2004-02-18 07:42:34 51°13.057 2°50.4 248.3 14.8 239 11.5
2004-02-18 07:42:38 51°13.05 2°50.377 245.8 14.9 242 11.4
2004-02-18 07:42:44 51°13.038 2°50.341 247 15 242 11.4
2004-02-18 07:42:48 51°13.031 2°50.318 248.2 14.8 243 11.5
2004-02-18 07:42:54 51°13.018 2°50.284 247.5 15 238 11.5
2004-02-18 07:42:58 51°13.011 2°50.259 246.9 15 246 11.3
2004-02-18 07:43:04 51°12.999 2°50.225 247.9 14.9 239 11.4
2004-02-18 07:43:09 51°12.99 2°50.197 247.5 14.6 241 11.4
2004-02-18 07:43:14 51°12.979 2°50.169 245.2 14.8 238 11.4
2004-02-18 07:43:18 51°12.972 2°50.145 245.3 15 243 11.4
2004-02-18 07:43:24 51°12.959 2°50.111 247.4 14.7 239 11.5
2004-02-18 07:43:28 51°12.952 2°50.087 245.6 14.8 242 11.5
2004-02-18 07:43:34 51°12.94 2°50.052 246.3 15 241 11.5
2004-02-18 07:43:39 51°12.931 2°50.023 246.6 15 243 11.6
2004-02-18 07:43:44 51°12.921 2°49.995 247.8 14.7 240 11.6
2004-02-18 07:43:48 51°12.912 2°49.972 245.8 15 240 11.6
2004-02-18 07:43:54 51°12.902 2°49.937 246.3 14.8 245 11.7
2004-02-18 07:44:00 51°12.889 2°49.903 247.5 14.7 238 11.6
2004-02-18 07:44:04 51°12.882 2°49.879 245.9 14.9 245 11.6
2004-02-18 07:44:09 51°12.872 2°49.85 248 14.8 242 11.7
2004-02-18 07:44:14 51°12.862 2°49.822 247.5 14.8 242 11.7
2004-02-18 07:44:18 51°12.855 2°49.798 246.7 14.9 241 11.7
2004-02-18 07:44:24 51°12.843 2°49.764 247.7 14.9 241 11.8
2004-02-18 07:44:29 51°12.834 2°49.734 247.5 15 244 11.7
2004-02-18 07:44:34 51°12.825 2°49.705 248.3 14.8 244 11.8
2004-02-18 07:44:39 51°12.815 2°49.677 249.1 14.7 242 11.6
2004-02-18 07:44:44 51°12.807 2°49.647 246.6 14.9 243 11.7
2004-02-18 07:44:49 51°12.797 2°49.618 247.9 14.9 242 11.7
2004-02-18 07:44:54 51°12.788 2°49.588 249.1 14.9 246 11.6
2004-02-18 07:44:58 51°12.78 2°49.565 247.9 15.2 240 11.7
2004-02-18 07:45:04 51°12.77 2°49.529 249.5 14.8 239 11.7
2004-02-18 07:45:08 51°12.761 2°49.506 247.6 14.9 245 11.8
2004-02-18 07:45:14 51°12.75 2°49.471 248.6 15 242 11.7
2004-02-18 07:45:19 51°12.741 2°49.441 246.7 15.1 241 11.9
2004-02-18 07:45:24 51°12.729 2°49.414 247.6 14.7 238 11.7
2004-02-18 07:45:29 51°12.72 2°49.383 244.4 15.2 245 11.7
2004-02-18 07:45:34 51°12.709 2°49.355 246.8 15.1 240 11.7
2004-02-18 07:45:39 51°12.701 2°49.326 246.2 14.8 241 12
2004-02-18 07:45:44 51°12.688 2°49.299 245.3 14.9 235 11.8
2004-02-18 07:45:49 51°12.68 2°49.268 243.1 15.1 246 11.8
2004-02-18 07:45:54 51°12.669 2°49.242 247.5 14.5 240 11.9
2004-02-18 07:45:58 51°12.66 2°49.219 245.6 15 237 11.7
2004-02-18 07:46:04 51°12.65 2°49.182 244.1 15.1 247 11.9
2004-02-18 07:46:09 51°12.638 2°49.156 249.2 14.8 235 12
2004-02-18 07:46:14 51°12.629 2°49.125 244.4 15 244 11.8
2004-02-18 07:46:18 51°12.62 2°49.104 245.8 14.9 239 12
2004-02-18 07:46:24 51°12.608 2°49.07 244.6 14.8 239 12
2004-02-18 07:46:29 51°12.597 2°49.042 243.8 14.8 238 12
2004-02-18 07:46:34 51°12.587 2°49.014 243.4 14.7 240 12.1
2004-02-18 07:46:39 51°12.575 2°48.986 243.4 14.9 237 12
2004-02-18 07:46:44 51°12.566 2°48.956 244.1 14.7 243 12.2
2004-02-18 07:46:49 51°12.555 2°48.93 246.6 14.7 236 12
2004-02-18 07:46:54 51°12.544 2°48.902 243.5 14.9 241 12
2004-02-18 07:46:59 51°12.533 2°48.874 244.2 14.9 238 12.1
2004-02-18 07:47:04 51°12.522 2°48.846 242.4 15 240 12.1
2004-02-18 07:47:08 51°12.514 2°48.823 243.1 14.8 238 12.1
2004-02-18 07:47:14 51°12.501 2°48.79 242.5 14.8 239 12.1
2004-02-18 07:47:18 51°12.492 2°48.768 243.7 14.8 241 12.1
2004-02-18 07:47:24 51°12.48 2°48.733 245.9 14.8 240 12.1
2004-02-18 07:47:29 51°12.471 2°48.704 245.5 14.8 241 12
2004-02-18 07:47:34 51°12.46 2°48.676 246.2 14.7 239 12
2004-02-18 07:47:38 51°12.452 2°48.653 244.4 14.8 240 12
2004-02-18 07:47:44 51°12.44 2°48.619 245.6 14.6 240 12
2004-02-18 07:47:49 51°12.431 2°48.591 245.1 14.6 241 12.1
2004-02-18 07:47:54 51°12.42 2°48.563 245.1 14.6 239 12.1
2004-02-18 07:47:59 51°12.41 2°48.535 244.4 14.7 241 12
2004-02-18 07:48:04 51°12.4 2°48.508 244.8 14.6 239 12.2
2004-02-18 07:48:08 51°12.391 2°48.487 245 14.4 238 12.2
2004-02-18 07:48:14 51°12.379 2°48.453 243.8 14.7 240 12.2
2004-02-18 07:48:19 51°12.37 2°48.424 244.3 14.7 241 12.2
2004-02-18 07:48:24 51°12.36 2°48.396 245.5 14.4 242 12.2
2004-02-18 07:48:28 51°12.352 2°48.374 245.8 14.7 240 12.2
2004-02-18 07:48:34 51°12.341 2°48.339 245.6 14.8 242 12.3
2004-02-18 07:48:38 51°12.333 2°48.317 247.2 14.4 240 12.1
2004-02-18 07:48:44 51°12.32 2°48.284 245.7 14.9 240 12.1
2004-02-18 07:48:48 51°12.312 2°48.261 245.1 14.8 245 12.2
2004-02-18 07:48:54 51°12.299 2°48.228 247.2 14.7 236 12.1
2004-02-18 07:48:58 51°12.293 2°48.203 244.1 14.8 246 12.1
2004-02-18 07:49:04 51°12.279 2°48.17 246.1 15.1 238 12.2
2004-02-18 07:49:09 51°12.272 2°48.139 245.1 14.9 248 12.3
2004-02-18 07:49:14 51°12.261 2°48.112 248.4 14.6 238 12.3
2004-02-18 07:49:19 51°12.252 2°48.083 245.5 14.7 242 12.3
2004-02-18 07:49:24 51°12.242 2°48.055 245.7 14.7 240 12.4
2004-02-18 07:49:28 51°12.233 2°48.033 245 14.8 238 12.4
2004-02-18 07:49:34 51°12.221 2°47.998 243.8 14.9 241 12.4
2004-02-18 07:49:38 51°12.213 2°47.976 245.5 14.8 237 12.3
2004-02-18 07:49:44 51°12.202 2°47.941 244.2 14.8 244 12.3
2004-02-18 07:49:48 51°12.192 2°47.92 246 14.7 237 12.4
2004-02-18 07:49:54 51°12.181 2°47.885 246.1 14.5 244 12.4
2004-02-18 07:49:58 51°12.172 2°47.864 243.3 14.8 238 12.3
2004-02-18 07:50:04 51°12.161 2°47.829 243.8 14.8 242 12.3
2004-02-18 07:50:09 51°12.15 2°47.802 244.6 14.8 240 12.2
2004-02-18 07:50:14 51°12.14 2°47.774 245.2 14.7 242 12.3
2004-02-18 07:50:18 51°12.132 2°47.752 246.2 14.7 240 12.2
2004-02-18 07:50:24 51°12.12 2°47.717 245.5 14.7 243 12.3
2004-02-18 07:50:29 51°12.11 2°47.689 246.5 14.6 240 12.3
2004-02-18 07:50:34 51°12.1 2°47.66 244.4 14.9 239 12.4
2004-02-18 07:50:38 51°12.093 2°47.637 245.5 14.8 243 12.3
2004-02-18 07:50:44 51°12.081 2°47.603 245.9 14.7 240 12.5
2004-02-18 07:50:48 51°12.072 2°47.582 245 14.8 241 12.4
2004-02-18 07:50:54 51°12.06 2°47.547 245.8 14.8 241 12.1
2004-02-18 07:51:00 51°12.049 2°47.513 245.7 14.7 241 12.2
2004-02-18 07:51:04 51°12.04 2°47.491 246.2 14.5 238 12.1
2004-02-18 07:51:09 51°12.032 2°47.461 244.4 14.6 244 12.1
2004-02-18 07:51:14 51°12.021 2°47.434 246 14.5 238 12.3
2004-02-18 07:51:19 51°12.012 2°47.406 244.5 14.5 241 12.4
2004-02-18 07:51:24 51°12.001 2°47.378 244.2 14.8 239 12.1
2004-02-18 07:51:28 51°11.993 2°47.355 243.8 14.8 242 12.2
2004-02-18 07:51:34 51°11.981 2°47.322 244.6 14.7 240 12.3
2004-02-18 07:51:39 51°11.97 2°47.295 245.8 14.5 241 12.3
2004-02-18 07:51:44 51°11.96 2°47.266 244.6 15 240 12.2
2004-02-18 07:51:48 51°11.953 2°47.242 244.5 14.7 243 12.2
2004-02-18 07:51:54 51°11.94 2°47.209 246.2 14.7 237 12.1
2004-02-18 07:51:58 51°11.933 2°47.185 243.4 14.8 246 12.2
2004-02-18 07:52:04 51°11.92 2°47.152 245.1 14.7 240 12.2
2004-02-18 07:52:09 51°11.912 2°47.122 245.2 14.5 245 12.1
2004-02-18 07:52:14 51°11.9 2°47.096 245.5 14.6 235 12.3
2004-02-18 07:52:18 51°11.894 2°47.072 243.8 14.7 244 12.1
2004-02-18 07:52:24 51°11.882 2°47.038 247.5 14.6 243 12
2004-02-18 07:52:28 51°11.874 2°47.016 246 14.6 239 12
2004-02-18 07:52:34 51°11.862 2°46.982 245.5 14.6 242 12.1
2004-02-18 07:52:38 51°11.853 2°46.961 244.9 14.6 238 12.2
2004-02-18 07:52:44 51°11.841 2°46.928 242.9 14.6 240 12.2
2004-02-18 07:52:48 51°11.832 2°46.906 243.5 14.9 238 12.1
2004-02-18 07:52:54 51°11.821 2°46.87 244.6 14.7 246 12.2
2004-02-18 07:52:59 51°11.811 2°46.844 247.5 14.1 241 12.1
2004-02-18 07:53:04 51°11.801 2°46.815 243.8 14.9 241 12.1
2004-02-18 07:53:09 51°11.792 2°46.786 246 14.7 241 11.9
2004-02-18 07:53:14 51°11.781 2°46.758 245.1 14.4 238 12.1
2004-02-18 07:53:18 51°11.773 2°46.736 243.7 14.9 237 12
2004-02-18 07:53:24 51°11.762 2°46.701 244.3 14.6 245 12.1
2004-02-18 07:53:28 51°11.753 2°46.68 246.3 14.6 236 12.1
2004-02-18 07:53:34 51°11.742 2°46.645 244 14.8 243 12.1
2004-02-18 07:53:38 51°11.733 2°46.623 245.6 14.7 240 12.1
2004-02-18 07:53:44 51°11.721 2°46.588 245.2 14.7 242 12.1
2004-02-18 07:53:49 51°11.71 2°46.561 244.4 14.8 240 12.1
2004-02-18 07:53:54 51°11.7 2°46.533 244.9 14.8 242 12.1
2004-02-18 07:53:58 51°11.693 2°46.511 245.8 14.5 242 12.1
2004-02-18 07:54:04 51°11.68 2°46.477 246.5 14.3 242 12
2004-02-18 07:54:09 51°11.67 2°46.448 243.7 15.1 241 12
2004-02-18 07:54:14 51°11.66 2°46.42 245.9 14.8 242 11.9
2004-02-18 07:54:18 51°11.652 2°46.398 243.8 14.6 239 11.9
2004-02-18 07:54:24 51°11.639 2°46.365 243.4 14.5 240 12
2004-02-18 07:54:28 51°11.631 2°46.343 244.5 14.7 240 12
2004-02-18 07:54:34 51°11.619 2°46.308 244.7 14.9 241 12
2004-02-18 07:54:38 51°11.612 2°46.285 246.1 14.3 240 12.1
2004-02-18 07:54:44 51°11.599 2°46.252 244.6 14.8 240 12
2004-02-18 07:54:48 51°11.591 2°46.229 243.9 15 242 11.9
2004-02-18 07:54:54 51°11.578 2°46.195 245.1 14.9 239 11.9
2004-02-18 07:54:58 51°11.571 2°46.171 244.1 14.8 243 11.9
2004-02-18 07:55:04 51°11.559 2°46.137 246 14.6 242 11.9
2004-02-18 07:55:09 51°11.551 2°46.108 246.6 14.7 244 11.8
2004-02-18 07:55:14 51°11.541 2°46.078 247.4 14.9 244 11.8
2004-02-18 07:55:18 51°11.535 2°46.054 249.9 14.8 245 11.4
2004-02-18 07:55:24 51°11.525 2°46.018 249.6 14.7 251 11.7
2004-02-18 07:55:29 51°11.516 2°45.989 252.3 14.7 243 11
2004-02-18 07:55:34 51°11.509 2°45.958 250.1 15.1 248 11.5
2004-02-18 07:55:39 51°11.501 2°45.927 253 14.8 249 11.6
2004-02-18 07:55:44 51°11.492 2°45.898 254.2 14.9 246 11.6
2004-02-18 07:55:49 51°11.486 2°45.867 252.4 14.9 251 11.5
2004-02-18 07:55:54 51°11.478 2°45.837 254.2 14.7 246 11.6
2004-02-18 07:55:58 51°11.471 2°45.813 252.1 14.9 246 11.4
2004-02-18 07:56:04 51°11.462 2°45.776 253.2 14.9 250 11.8
2004-02-18 07:56:08 51°11.456 2°45.752 252.9 14.9 246 11.6
2004-02-18 07:56:14 51°11.447 2°45.715 251.5 14.9 250 11.7
2004-02-18 07:56:18 51°11.439 2°45.692 252.6 14.9 245 11.8
2004-02-18 07:56:24 51°11.43 2°45.654 250.6 14.9 248 11.8
2004-02-18 07:56:28 51°11.423 2°45.631 251.8 14.9 245 11.8
2004-02-18 07:56:34 51°11.415 2°45.594 251.8 14.6 251 11.8
2004-02-18 07:56:38 51°11.406 2°45.571 252.4 14.8 244 11.7
2004-02-18 07:56:44 51°11.399 2°45.533 252.6 15 252 11.6
2004-02-18 07:56:48 51°11.391 2°45.509 253.6 14.8 249 11.7
2004-02-18 07:56:53 51°11.385 2°45.479 254.5 14.6 249 11.7
2004-02-18 07:56:58 51°11.377 2°45.449 252.3 14.6 246 11.8
2004-02-18 07:57:04 51°11.367 2°45.413 252.7 14.9 248 11.7
2004-02-18 07:57:09 51°11.36 2°45.382 253 14.8 251 11.7
2004-02-18 07:57:14 51°11.352 2°45.352 254.2 14.8 246 11.8
2004-02-18 07:57:18 51°11.347 2°45.328 253.3 14.6 249 11.7
2004-02-18 07:57:24 51°11.337 2°45.293 253.3 14.5 246 11.8
2004-02-18 07:57:28 51°11.33 2°45.27 251.9 14.7 245 11.8
2004-02-18 07:57:34 51°11.321 2°45.233 251.8 14.9 249 11.8
2004-02-18 07:57:38 51°11.314 2°45.21 252.5 14.7 246 11.7
2004-02-18 07:57:44 51°11.305 2°45.174 253.3 14.5 249 11.6
2004-02-18 07:57:48 51°11.298 2°45.151 252.7 14.5 249 11.7
2004-02-18 07:57:54 51°11.29 2°45.115 254.1 14.3 249 11.7
2004-02-18 07:57:58 51°11.283 2°45.091 252.3 14.6 245 11.7
2004-02-18 07:58:04 51°11.275 2°45.053 251.3 15 247 11.7
2004-02-18 07:58:08 51°11.269 2°45.03 256.1 14.2 246 11.6
2004-02-18 07:58:14 51°11.26 2°44.995 251.3 14.5 247 11.6
2004-02-18 07:58:18 51°11.254 2°44.97 251.9 14.7 251 11.6
2004-02-18 07:58:24 51°11.245 2°44.935 254.2 14.5 247 11.5
2004-02-18 07:58:29 51°11.238 2°44.905 254 14.6 249 11.6
2004-02-18 07:58:34 51°11.232 2°44.874 255.1 14.5 252 11.6
2004-02-18 07:58:39 51°11.223 2°44.846 255.4 14.3 248 11.7
2004-02-18 07:58:44 51°11.217 2°44.815 253 14.5 250 11.7
2004-02-18 07:58:48 51°11.21 2°44.791 253.3 14.9 249 11.7
2004-02-18 07:58:54 51°11.203 2°44.755 254.8 14.5 252 11.7
2004-02-18 07:58:58 51°11.196 2°44.732 254.9 14.2 247 11.6
2004-02-18 07:59:04 51°11.188 2°44.696 252.4 14.6 252 11.7
2004-02-18 07:59:09 51°11.181 2°44.666 254.7 14.6 248 11.6
2004-02-18 07:59:14 51°11.174 2°44.635 254.7 14.5 250 11.6
2004-02-18 07:59:18 51°11.168 2°44.612 254.5 14.5 249 11.7
2004-02-18 07:59:24 51°11.16 2°44.576 254 14.4 250 11.8
2004-02-18 07:59:28 51°11.154 2°44.552 255 14.5 249 11.8
2004-02-18 07:59:34 51°11.146 2°44.516 254.3 14.4 250 11.7
2004-02-18 07:59:39 51°11.138 2°44.486 255.1 14.5 250 11.6
2004-02-18 07:59:44 51°11.132 2°44.455 253.3 14.7 247 11.7
2004-02-18 07:59:48 51°11.125 2°44.432 255.5 14.3 245 11.7
2004-02-18 07:59:54 51°11.118 2°44.396 253.2 14.4 252 11.6
2004-02-18 07:59:59 51°11.109 2°44.366 253.9 14.4 252 11.5
2004-02-18 08:00:04 51°11.104 2°44.335 254.7 14.6 250 11.6
2004-02-18 08:00:08 51°11.097 2°44.313 256.3 14.4 248 11.7
2004-02-18 08:00:14 51°11.09 2°44.275 254.5 14.7 252 11.6
2004-02-18 08:00:18 51°11.085 2°44.251 256.3 14.4 251 11.6
2004-02-18 08:00:24 51°11.077 2°44.215 256.6 14.5 252 11.3
2004-02-18 08:00:28 51°11.072 2°44.19 256.9 14.6 253 11.7
2004-02-18 08:00:34 51°11.064 2°44.154 257.7 14.6 253 11.6
2004-02-18 08:00:39 51°11.06 2°44.123 258.3 14.4 256 11.7
2004-02-18 08:00:44 51°11.052 2°44.092 258.2 14.7 252 11.7
2004-02-18 08:00:49 51°11.048 2°44.061 257.3 14.7 256 11.7
2004-02-18 08:00:54 51°11.04 2°44.031 259.1 14.5 249 11.8
2004-02-18 08:00:59 51°11.034 2°44 258.3 14.4 254 11.7
2004-02-18 08:01:04 51°11.029 2°43.97 257.3 14.5 254 11.7
2004-02-18 08:01:09 51°11.022 2°43.939 258.1 14.5 251 11.7
2004-02-18 08:01:14 51°11.017 2°43.909 257.7 14.4 254 11.8
2004-02-18 08:01:19 51°11.01 2°43.879 258.3 14.6 250 11.9
2004-02-18 08:01:24 51°11.006 2°43.847 257.3 14.5 257 11.9
2004-02-18 08:01:29 51°11 2°43.817 260.3 14.5 257 12
2004-02-18 08:01:34 51°10.994 2°43.787 258.8 14.4 253 12
2004-02-18 08:01:38 51°10.99 2°43.762 258.5 14.5 254 12
2004-02-18 08:01:44 51°10.982 2°43.726 258.7 14.5 252 12
2004-02-18 08:01:48 51°10.977 2°43.701 257.2 14.4 253 11.9
2004-02-18 08:01:54 51°10.97 2°43.665 257.3 14.4 251 12
2004-02-18 08:01:58 51°10.966 2°43.64 256.7 14.5 254 11.9
2004-02-18 08:02:04 51°10.958 2°43.604 257.8 14.6 251 11.8
2004-02-18 08:02:08 51°10.953 2°43.579 257.8 14.5 254 11.9
2004-02-18 08:02:14 51°10.946 2°43.543 257.7 14.4 252 11.9
2004-02-18 08:02:19 51°10.94 2°43.512 257.9 14.7 253 11.8
2004-02-18 08:02:24 51°10.935 2°43.481 258.5 14.4 254 11.9
2004-02-18 08:02:28 51°10.929 2°43.457 257.9 14.3 250 11.9
2004-02-18 08:02:34 51°10.923 2°43.42 256.8 14.4 254 11.9
2004-02-18 08:02:38 51°10.917 2°43.396 257.7 14.5 251 12
2004-02-18 08:02:44 51°10.91 2°43.359 257.9 14.5 254 11.9
2004-02-18 08:02:48 51°10.906 2°43.334 257.8 14.5 255 12
2004-02-18 08:02:54 51°10.899 2°43.299 258.3 14.3 251 11.9
2004-02-18 08:02:58 51°10.894 2°43.275 258.4 14.2 254 12
2004-02-18 08:03:04 51°10.886 2°43.238 256 14.5 251 12
2004-02-18 08:03:08 51°10.881 2°43.214 256.3 14.3 252 12
2004-02-18 08:03:14 51°10.873 2°43.178 257.1 14.5 250 11.9
2004-02-18 08:03:19 51°10.869 2°43.148 257.3 14.4 256 11.9
2004-02-18 08:03:24 51°10.862 2°43.118 258.2 14.3 252 11.9
2004-02-18 08:03:28 51°10.858 2°43.093 256.8 14.5 252 12
2004-02-18 08:03:34 51°10.851 2°43.056 259 14.3 255 12
2004-02-18 08:03:38 51°10.846 2°43.032 258.2 14.6 252 12.1
2004-02-18 08:03:44 51°10.842 2°42.994 259.8 14.6 257 12.1
2004-02-18 08:03:48 51°10.837 2°42.969 261.6 14.7 255 12.2
2004-02-18 08:03:54 51°10.832 2°42.932 260.7 14.4 257 12.2
2004-02-18 08:03:58 51°10.826 2°42.908 261.3 14.5 250 12.1
2004-02-18 08:04:04 51°10.821 2°42.87 258.9 14.6 254 12
2004-02-18 08:04:09 51°10.815 2°42.839 260.5 14.6 253 11.9
2004-02-18 08:04:14 51°10.81 2°42.808 259.5 14.5 256 12
2004-02-18 08:04:18 51°10.805 2°42.785 259.9 14.2 254 12.2
2004-02-18 08:04:24 51°10.799 2°42.748 259.2 14.2 255 12.1
2004-02-18 08:04:29 51°10.794 2°42.717 259.1 14.4 256 12.3
2004-02-18 08:04:34 51°10.789 2°42.686 260.6 14.4 256 12.2
2004-02-18 08:04:38 51°10.785 2°42.661 259.8 14.6 258 12.3
2004-02-18 08:04:44 51°10.779 2°42.625 261.3 13.9 252 12.4
2004-02-18 08:04:48 51°10.774 2°42.601 259 14.2 252 12.3
2004-02-18 08:04:54 51°10.768 2°42.564 257.2 14.7 256 12.2
2004-02-18 08:04:58 51°10.763 2°42.539 259.9 14.8 255 12.2
2004-02-18 08:05:04 51°10.756 2°42.501 259.7 14.5 255 12.2
2004-02-18 08:05:09 51°10.752 2°42.471 260 14.2 256 12.3
2004-02-18 08:05:13 51°10.747 2°42.447 259.9 14.1 252 12.3
2004-02-18 08:05:20 51°10.739 2°42.404 257.9 14.3 254 12.2
2004-02-18 08:05:24 51°10.735 2°42.379 258.3 14.9 255 12.1
2004-02-18 08:05:28 51°10.731 2°42.353 259.8 14.7 255 12
2004-02-18 08:05:34 51°10.724 2°42.317 259.9 14.3 253 12.2
2004-02-18 08:05:39 51°10.719 2°42.288 259.7 14.1 255 12.3
2004-02-18 08:05:44 51°10.713 2°42.257 257.9 14.3 252 12.3
2004-02-18 08:05:48 51°10.708 2°42.232 258 14.5 255 12.4
2004-02-18 08:05:54 51°10.702 2°42.194 258.5 14.9 254 12.4
2004-02-18 08:05:59 51°10.698 2°42.162 260.5 14.6 258 12.4
2004-02-18 08:06:04 51°10.692 2°42.132 261 14.3 254 12.5
2004-02-18 08:06:08 51°10.688 2°42.108 259.5 14.4 253 12.5
2004-02-18 08:06:14 51°10.681 2°42.071 257.7 14.6 254 12.5
2004-02-18 08:06:19 51°10.675 2°42.039 259.1 14.7 255 12.4
2004-02-18 08:06:24 51°10.67 2°42.008 258.3 14.8 257 12.3
2004-02-18 08:06:28 51°10.666 2°41.983 260.3 14.7 258 12.4
2004-02-18 08:06:34 51°10.659 2°41.947 259.2 14.2 253 12.4
2004-02-18 08:06:38 51°10.655 2°41.922 258.3 14.3 254 12.5
2004-02-18 08:06:44 51°10.648 2°41.886 258.1 14.4 253 12.5
2004-02-18 08:06:49 51°10.642 2°41.855 257.5 14.8 253 12.3
2004-02-18 08:06:54 51°10.637 2°41.823 257.8 14.8 255 12.4
2004-02-18 08:06:59 51°10.632 2°41.793 261.5 14.4 258 12.5
2004-02-18 08:07:04 51°10.626 2°41.762 260 14.2 253 12.5
2004-02-18 08:07:09 51°10.622 2°41.732 259.6 14.2 256 12.4
2004-02-18 08:07:14 51°10.616 2°41.701 260.3 14.3 252 12.3
2004-02-18 08:07:18 51°10.612 2°41.676 258.3 14.5 255 12.4
2004-02-18 08:07:24 51°10.606 2°41.64 259.1 14.4 255 12.5
2004-02-18 08:07:28 51°10.602 2°41.616 259.9 14 256 12.5
2004-02-18 08:07:34 51°10.596 2°41.58 260.8 14.1 254 12.6
2004-02-18 08:07:39 51°10.591 2°41.549 259.6 14.3 255 12.6
2004-02-18 08:07:44 51°10.587 2°41.519 261.1 14.3 258 12.5
2004-02-18 08:07:49 51°10.581 2°41.488 259.8 14.3 254 12.6
2004-02-18 08:07:54 51°10.576 2°41.458 260.5 14.3 255 12.6
2004-02-18 08:07:59 51°10.572 2°41.427 259.6 14.2 256 12.6
2004-02-18 08:08:04 51°10.566 2°41.397 260.6 14 256 12.7
2004-02-18 08:08:09 51°10.561 2°41.367 259 14.2 253 12.7
2004-02-18 08:08:14 51°10.555 2°41.337 259.3 14.3 254 12.7
2004-02-18 08:08:19 51°10.551 2°41.306 260.2 14.1 256 12.6
2004-02-18 08:08:24 51°10.545 2°41.276 259.3 14.1 254 12.7
2004-02-18 08:08:28 51°10.541 2°41.252 259.2 14.3 253 12.6
2004-02-18 08:08:34 51°10.535 2°41.216 258.7 14.3 255 12.7
2004-02-18 08:08:39 51°10.529 2°41.186 258.6 14.2 253 12.8
2004-02-18 08:08:44 51°10.524 2°41.155 259.6 14.2 254 12.6
2004-02-18 08:08:49 51°10.518 2°41.125 259.2 14.1 254 12.5
2004-02-18 08:08:54 51°10.513 2°41.096 259.6 14 255 12.6
2004-02-18 08:08:58 51°10.509 2°41.071 258.3 14.1 252 12.7
2004-02-18 08:09:04 51°10.503 2°41.034 259.1 14.4 255 12.8
2004-02-18 08:09:09 51°10.497 2°41.004 259.4 14.4 253 12.8
2004-02-18 08:09:14 51°10.492 2°40.973 258.5 14.4 255 13
2004-02-18 08:09:18 51°10.488 2°40.949 260.1 14.2 255 13.1
2004-02-18 08:09:24 51°10.481 2°40.913 259.7 14.2 254 13.1
2004-02-18 08:09:29 51°10.477 2°40.882 259.1 14.4 256 12.9
2004-02-18 08:09:34 51°10.472 2°40.851 260.1 14.3 256 12.9
2004-02-18 08:09:38 51°10.467 2°40.827 260.3 14.3 255 12.9
2004-02-18 08:09:44 51°10.462 2°40.79 259.4 14.3 254 13
2004-02-18 08:09:49 51°10.455 2°40.76 259.5 14.4 252 12.9
2004-02-18 08:09:54 51°10.449 2°40.73 258.1 14.4 253 12.9
2004-02-18 08:09:58 51°10.445 2°40.705 257.6 14.5 253 12.8
2004-02-18 08:10:04 51°10.439 2°40.669 259.7 14.2 254 12.9
2004-02-18 08:10:09 51°10.434 2°40.638 259.8 14.3 255 12.9
2004-02-18 08:10:14 51°10.428 2°40.608 259.1 14.3 255 13.1
2004-02-18 08:10:19 51°10.423 2°40.577 259.8 14.3 256 13.1
2004-02-18 08:10:24 51°10.418 2°40.546 259.6 14.3 254 13.1
2004-02-18 08:10:28 51°10.414 2°40.522 260 14.3 255 13.2
2004-02-18 08:10:34 51°10.407 2°40.486 259.8 14.4 254 13.2
2004-02-18 08:10:38 51°10.402 2°40.461 258.4 14.3 256 13.2
2004-02-18 08:10:44 51°10.395 2°40.425 259.8 14.3 257 13.2
2004-02-18 08:10:48 51°10.392 2°40.401 258 14.2 254 13.3
2004-02-18 08:10:54 51°10.384 2°40.365 259.1 14.2 251 13.2
2004-02-18 08:10:59 51°10.38 2°40.334 258 14.6 256 13.1
2004-02-18 08:11:04 51°10.374 2°40.303 259.6 14.3 253 13.1
2004-02-18 08:11:08 51°10.369 2°40.279 258.5 14.3 253 13.4
2004-02-18 08:11:14 51°10.363 2°40.242 258.7 14.3 256 13.3
2004-02-18 08:11:18 51°10.358 2°40.218 259.2 14.3 253 13.4
2004-02-18 08:11:24 51°10.352 2°40.182 259.5 14.4 251 13.4
2004-02-18 08:11:28 51°10.348 2°40.157 257.7 14.4 255 13.5
2004-02-18 08:11:34 51°10.342 2°40.121 259.4 14.3 255 13.5
2004-02-18 08:11:39 51°10.336 2°40.09 258.8 14.5 252 13.6
2004-02-18 08:11:44 51°10.331 2°40.059 259.1 14.3 256 13.6
2004-02-18 08:11:49 51°10.326 2°40.029 261.1 14.3 255 13.6
2004-02-18 08:11:54 51°10.321 2°39.998 260.2 14.4 256 13.7
2004-02-18 08:11:59 51°10.316 2°39.967 260.4 14.4 255 13.7
2004-02-18 08:12:04 51°10.311 2°39.936 259.7 14.4 255 13.8
2004-02-18 08:12:08 51°10.305 2°39.912 259 14.5 253 13.8
2004-02-18 08:12:14 51°10.299 2°39.876 259.1 14.2 255 13.9
2004-02-18 08:12:18 51°10.294 2°39.852 258.2 14.4 251 13.8
2004-02-18 08:12:24 51°10.288 2°39.815 256.9 14.3 255 13.9
2004-02-18 08:12:29 51°10.281 2°39.785 258.3 14.6 251 13.9
2004-02-18 08:12:33 51°10.277 2°39.76 258.3 14.4 256 14
2004-02-18 08:12:40 51°10.269 2°39.718 261.2 14.1 257 14.1
2004-02-18 08:12:44 51°10.266 2°39.693 258.4 14.4 260 14.2
2004-02-18 08:12:49 51°10.261 2°39.662 261.1 14.3 258 14.2
2004-02-18 08:12:54 51°10.256 2°39.631 260.2 14.4 255 14.4
2004-02-18 08:12:59 51°10.251 2°39.601 260.9 14.3 257 14.4
2004-02-18 08:13:04 51°10.246 2°39.57 260.2 14.4 257 14.5
2004-02-18 08:13:08 51°10.242 2°39.546 260.1 14.3 255 14.6
2004-02-18 08:13:14 51°10.236 2°39.509 260.8 14.4 256 14.7
2004-02-18 08:13:19 51°10.23 2°39.478 260.1 14.5 255 14.6
2004-02-18 08:13:24 51°10.226 2°39.448 259.6 14.4 255 14.7
2004-02-18 08:13:28 51°10.221 2°39.423 259.2 14.3 255 14.8
2004-02-18 08:13:34 51°10.215 2°39.387 259.6 14.4 255 14.8
2004-02-18 08:13:39 51°10.21 2°39.357 260 14 256 14.8
2004-02-18 08:13:44 51°10.204 2°39.327 260.5 14.3 251 15
2004-02-18 08:13:49 51°10.2 2°39.296 258.1 14.2 258 15.2
2004-02-18 08:13:54 51°10.193 2°39.267 260.9 14.2 258 15
2004-02-18 08:14:00 51°10.187 2°39.23 257.8 14.2 253 15.1
2004-02-18 08:14:04 51°10.182 2°39.206 258.6 14.3 252 15
2004-02-18 08:14:09 51°10.178 2°39.176 259.4 14.1 258 15.2
2004-02-18 08:14:14 51°10.172 2°39.146 259.2 14.2 252 15.2
2004-02-18 08:14:18 51°10.169 2°39.122 259.1 14.2 252 15.4
2004-02-18 08:14:24 51°10.161 2°39.086 259.9 14.2 255 15.4
2004-02-18 08:14:29 51°10.158 2°39.054 259.4 14.2 259 15.5
2004-02-18 08:14:34 51°10.152 2°39.025 261.1 14 252 15.6
2004-02-18 08:14:38 51°10.148 2°39.001 259.3 14.2 254 15.7
2004-02-18 08:14:44 51°10.142 2°38.965 261.1 14 255 15.5
2004-02-18 08:14:48 51°10.138 2°38.94 259.1 14.2 257 15.6
2004-02-18 08:14:54 51°10.131 2°38.904 260.3 14.3 253 15.6
2004-02-18 08:14:58 51°10.128 2°38.88 259.5 14.1 257 15.8
2004-02-18 08:15:04 51°10.121 2°38.844 259.1 14.4 251 15.8
2004-02-18 08:15:08 51°10.118 2°38.819 259.8 14.1 255 15.9
2004-02-18 08:15:14 51°10.11 2°38.783 258.7 14.2 252 15.9
2004-02-18 08:15:19 51°10.106 2°38.753 259.1 14.3 256 15.9
2004-02-18 08:15:24 51°10.1 2°38.723 259.6 14.3 254 15.8
2004-02-18 08:15:28 51°10.096 2°38.698 258.3 14.3 255 15.9
2004-02-18 08:15:34 51°10.09 2°38.662 259 14.2 255 16
2004-02-18 08:15:39 51°10.085 2°38.631 259.6 14.1 257 16
2004-02-18 08:15:44 51°10.08 2°38.601 259.1 14.4 252 16
2004-02-18 08:15:49 51°10.074 2°38.572 261.6 13.9 252 15.9
2004-02-18 08:15:54 51°10.07 2°38.541 258.8 13.9 252 15.9
2004-02-18 08:15:58 51°10.065 2°38.517 259.6 14.1 255 16.1
2004-02-18 08:16:04 51°10.059 2°38.481 260 14.1 254 16.1
2004-02-18 08:16:08 51°10.055 2°38.457 259.1 14.1 255 16.3
2004-02-18 08:16:14 51°10.049 2°38.421 259.5 14.2 254 16.4
2004-02-18 08:16:20 51°10.042 2°38.384 259.5 14.2 254 16.7
2004-02-18 08:16:24 51°10.038 2°38.36 259 14.3 255 16.8
2004-02-18 08:16:29 51°10.032 2°38.329 258.9 14.5 253 16.8
2004-02-18 08:16:33 51°10.029 2°38.305 259.4 14.1 256 16.9
2004-02-18 08:16:38 51°10.022 2°38.276 259.4 14 253 16.8
2004-02-18 08:16:44 51°10.016 2°38.238 255.4 14 253 16.8
2004-02-18 08:16:49 51°10.011 2°38.209 261.2 14 254 17
2004-02-18 08:16:54 51°10.005 2°38.178 258.8 14 254 17.1
2004-02-18 08:16:59 51°10 2°38.147 258.2 14.6 255 17.3
2004-02-18 08:17:04 51°9.996 2°38.117 261.9 14.2 256 17.4
2004-02-18 08:17:09 51°9.989 2°38.087 259.6 14.5 250 17.3
2004-02-18 08:17:13 51°9.987 2°38.061 259.1 14.4 259 17
2004-02-18 08:17:19 51°9.98 2°38.025 261 14.3 255 17.2
2004-02-18 08:17:24 51°9.976 2°37.995 260 14.2 256 17.5
2004-02-18 08:17:28 51°9.971 2°37.971 260.5 14.3 253 17.4
2004-02-18 08:17:34 51°9.965 2°37.934 259.1 14.4 256 17.4
2004-02-18 08:17:38 51°9.961 2°37.91 260.3 14.1 255 17.5
2004-02-18 08:17:44 51°9.954 2°37.874 259.8 14.1 255 17.5
2004-02-18 08:17:48 51°9.951 2°37.849 258.4 14.3 257 17.5
2004-02-18 08:17:54 51°9.944 2°37.813 259.7 14.2 253 17.5
2004-02-18 08:17:59 51°9.938 2°37.782 258.3 14.4 252 17.6
2004-02-18 08:18:04 51°9.933 2°37.752 259.3 14.2 257 17.6
2004-02-18 08:18:09 51°9.927 2°37.722 259 14.2 254 17.6
2004-02-18 08:18:14 51°9.923 2°37.692 258.9 14.3 257 17.6
2004-02-18 08:18:19 51°9.918 2°37.661 259.9 14.2 254 17.6
2004-02-18 08:18:24 51°9.914 2°37.631 261.2 14.3 258 17.5
2004-02-18 08:18:29 51°9.911 2°37.6 262.4 14.3 257 17.6
2004-02-18 08:18:34 51°9.906 2°37.57 263.4 14 257 17.6
2004-02-18 08:18:39 51°9.903 2°37.539 262.2 14.2 257 17.6
2004-02-18 08:18:44 51°9.898 2°37.508 264.1 14.2 261 17.6
2004-02-18 08:18:49 51°9.895 2°37.477 263.8 14.2 259 17.6
2004-02-18 08:18:54 51°9.891 2°37.447 263.7 14.1 257 17.6
2004-02-18 08:18:59 51°9.886 2°37.416 262.7 14.5 257 17.6
2004-02-18 08:19:04 51°9.883 2°37.384 263.8 14.4 260 17.7
2004-02-18 08:19:08 51°9.879 2°37.36 263.1 14.3 257 17.7
2004-02-18 08:19:14 51°9.875 2°37.323 263 14.4 260 17.7
2004-02-18 08:19:19 51°9.872 2°37.292 264.8 14.2 261 17.8
2004-02-18 08:19:24 51°9.868 2°37.261 264.2 14.1 258 17.9
2004-02-18 08:19:29 51°9.864 2°37.231 264.8 14.1 260 17.7
2004-02-18 08:19:34 51°9.861 2°37.2 264.3 14.1 259 17.8
2004-02-18 08:19:38 51°9.858 2°37.176 264.5 14.1 260 17.8
2004-02-18 08:19:44 51°9.854 2°37.139 264 14.2 258 17.8
2004-02-18 08:19:48 51°9.851 2°37.115 264.5 14.1 260 17.8
2004-02-18 08:19:54 51°9.846 2°37.078 263.7 14 259 17.8
2004-02-18 08:19:59 51°9.843 2°37.048 263.1 14 259 17.9
2004-02-18 08:20:04 51°9.839 2°37.017 263.5 13.9 260 17.8
2004-02-18 08:20:08 51°9.836 2°36.993 263.5 13.9 259 17.9
2004-02-18 08:20:14 51°9.832 2°36.957 262.8 14 259 17.9
2004-02-18 08:20:18 51°9.829 2°36.933 262.7 14.1 259 17.8
2004-02-18 08:20:24 51°9.824 2°36.898 263.1 13.6 259 17.4
2004-02-18 08:20:28 51°9.821 2°36.876 263.3 12.2 256 18
2004-02-18 08:20:32 51°9.818 2°36.857 262.6 11.2 256 17.7
2004-02-18 08:20:38 51°9.813 2°36.831 260.5 10.3 253 17.7
2004-02-18 08:20:44 51°9.807 2°36.809 255 9 246 17.9
2004-02-18 08:20:49 51°9.8 2°36.793 251.3 8.4 240 17.9
2004-02-18 08:20:54 51°9.795 2°36.778 246.2 7.9 240 17.9
2004-02-18 08:20:59 51°9.789 2°36.765 242.1 7.1 235 18.3
2004-02-18 08:21:04 51°9.784 2°36.754 239.9 6.2 236 18.4
2004-02-18 08:21:09 51°9.779 2°36.744 240.2 6.2 236 18.2
2004-02-18 08:21:14 51°9.776 2°36.734 242.4 5.1 238 18.3
2004-02-18 08:21:18 51°9.773 2°36.728 244.5 4.2 233 18.6
2004-02-18 08:21:24 51°9.769 2°36.72 243.6 3.6 233 18.5
2004-02-18 08:21:29 51°9.766 2°36.715 241.1 3.4 227 18.4
2004-02-18 08:21:34 51°9.764 2°36.71 238 3.1 228 18.2
2004-02-18 08:21:39 51°9.76 2°36.706 233.7 3.1 228 18.4
2004-02-18 08:21:44 51°9.757 2°36.701 231.4 3.1 225 18.1
2004-02-18 08:21:48 51°9.755 2°36.698 228.6 3.2 220 18.4
2004-02-18 08:21:54 51°9.75 2°36.692 227.2 3.5 221 18.1
2004-02-18 08:21:58 51°9.747 2°36.688 227.9 3.5 221 18.4
2004-02-18 08:22:04 51°9.743 2°36.682 229.3 3.2 220 18.2
2004-02-18 08:22:08 51°9.741 2°36.678 230.6 3.2 222 18.4
2004-02-18 08:22:14 51°9.737 2°36.674 231.6 2.6 219 18.1
2004-02-18 08:22:19 51°9.735 2°36.672 234.4 2.1 220 18.4
2004-02-18 08:22:24 51°9.734 2°36.67 238.1 1.6 223 18.1
2004-02-18 08:22:29 51°9.733 2°36.67 241.6 1.2 204 17.9
2004-02-18 08:22:34 51°9.732 2°36.67 244.4 0.6 165 17.9
2004-02-18 08:22:39 51°9.732 2°36.672 248.2 0.8 137 17.9
2004-02-18 08:22:44 51°9.731 2°36.673 250.4 0.8 134 17.9
2004-02-18 08:22:49 51°9.73 2°36.674 250.7 0.7 142 18
2004-02-18 08:22:54 51°9.729 2°36.674 250.4 0.7 148 18
2004-02-18 08:22:59 51°9.729 2°36.675 249.8 0.8 152 18.1
2004-02-18 08:23:04 51°9.728 2°36.676 249.2 0.7 165 18.2
2004-02-18 08:23:08 51°9.727 2°36.676 248.8 0.8 166 18
2004-02-18 08:23:14 51°9.726 2°36.677 247.9 0.7 164 18
2004-02-18 08:23:19 51°9.724 2°36.677 247.5 0.7 176 18.1
2004-02-18 08:23:24 51°9.723 2°36.677 246.8 0.9 179 18.1
2004-02-18 08:23:28 51°9.722 2°36.677 246.5 0.9 184 18.1
2004-02-18 08:23:34 51°9.72 2°36.676 246.3 0.9 196 18.2
2004-02-18 08:23:39 51°9.719 2°36.675 246.6 1.1 190 18.3
2004-02-18 08:23:44 51°9.718 2°36.675 247.5 0.8 209 18.4
2004-02-18 08:23:48 51°9.717 2°36.675 248.1 1.2 197 18.1
2004-02-18 08:23:54 51°9.715 2°36.673 249.3 1 207 17.9
2004-02-18 08:23:58 51°9.714 2°36.672 250.1 1.1 201 18.1
2004-02-18 08:24:04 51°9.713 2°36.671 251.2 1.1 207 18.1
2004-02-18 08:24:09 51°9.711 2°36.67 252.3 1.1 205 18.2
2004-02-18 08:24:13 51°9.71 2°36.669 253.4 1 218 18.3
2004-02-18 08:24:19 51°9.709 2°36.667 255.1 1.1 210 17.9
2004-02-18 08:24:24 51°9.708 2°36.666 256.9 1.1 215 17.8
2004-02-18 08:24:29 51°9.706 2°36.664 258.5 1.1 221 17.9
2004-02-18 08:24:34 51°9.705 2°36.663 260.2 1 221 18.1
2004-02-18 08:24:39 51°9.704 2°36.661 261 1.2 222 18.2
2004-02-18 08:24:44 51°9.703 2°36.66 261.5 1 223 18.2
2004-02-18 08:24:48 51°9.702 2°36.658 261.6 1.3 227 17.8
2004-02-18 08:24:53 51°9.701 2°36.656 261.1 1.2 224 18
2004-02-18 08:25:00 51°9.699 2°36.654 260.7 1.3 218 18
2004-02-18 08:25:04 51°9.698 2°36.652 259.5 1.3 221 18
2004-02-18 08:25:08 51°9.697 2°36.651 258 1.2 216 17.6
2004-02-18 08:25:14 51°9.695 2°36.649 256.9 1.2 225 17.4
2004-02-18 08:25:18 51°9.694 2°36.647 256.5 1.1 219 17.6
2004-02-18 08:25:24 51°9.693 2°36.645 256.4 1.3 220 17.8
2004-02-18 08:25:28 51°9.692 2°36.644 256.4 1.1 221 18
2004-02-18 08:25:34 51°9.69 2°36.641 256.9 1.1 223 18.1
2004-02-18 08:25:39 51°9.689 2°36.639 257.3 1.2 227 17.8
2004-02-18 08:25:44 51°9.688 2°36.637 258.2 1.3 229 17.8
2004-02-18 08:25:48 51°9.687 2°36.636 259.2 1.2 225 18
2004-02-18 08:25:54 51°9.686 2°36.633 260 1.2 225 18.1
2004-02-18 08:25:59 51°9.684 2°36.631 260.5 1.3 230 18.3
2004-02-18 08:26:04 51°9.684 2°36.629 261.2 1.3 222 18.3
2004-02-18 08:26:08 51°9.682 2°36.628 262.5 1.2 231 17.9
2004-02-18 08:26:14 51°9.68 2°36.625 262.8 1.3 217 17.7
2004-02-18 08:26:18 51°9.679 2°36.624 263.7 1.2 231 17.6
2004-02-18 08:26:24 51°9.678 2°36.621 263 1.2 219 17.7
2004-02-18 08:26:29 51°9.677 2°36.619 263.4 1.2 219 17.9
2004-02-18 08:26:34 51°9.676 2°36.617 263.4 1.2 226 18
2004-02-18 08:26:38 51°9.675 2°36.616 263.4 1.2 218 17.7
2004-02-18 08:26:44 51°9.674 2°36.614 262.8 1.1 225 17.9
2004-02-18 08:26:49 51°9.672 2°36.612 262.7 1.2 227 18.1
2004-02-18 08:26:53 51°9.671 2°36.611 263.1 1.2 221 17.6
2004-02-18 08:26:59 51°9.67 2°36.609 262.7 1.2 221 17.7
2004-02-18 08:27:04 51°9.669 2°36.607 262.5 1.1 222 17.9
2004-02-18 08:27:09 51°9.667 2°36.605 262.7 1.3 222 18.2
2004-02-18 08:27:14 51°9.666 2°36.604 262.7 1.1 217 17.7
2004-02-18 08:27:19 51°9.665 2°36.602 262.2 1.2 218 17.4
2004-02-18 08:27:24 51°9.664 2°36.601 262 1.2 220 17.5
2004-02-18 08:27:29 51°9.663 2°36.599 262.4 1.2 220 17.8
2004-02-18 08:27:34 51°9.662 2°36.598 262.7 1 222 18.1
2004-02-18 08:27:38 51°9.661 2°36.597 263.1 1.1 222 18.3
2004-02-18 08:27:44 51°9.66 2°36.594 263.4 1 226 18.1
2004-02-18 08:27:48 51°9.659 2°36.593 264.1 1.1 214 17.9
2004-02-18 08:27:54 51°9.658 2°36.592 264.5 1 213 17.9
2004-02-18 08:27:58 51°9.657 2°36.591 265.2 0.9 224 17.9
2004-02-18 08:28:04 51°9.656 2°36.589 265.6 1 223 18
2004-02-18 08:28:08 51°9.655 2°36.588 265.9 1 224 18.2
2004-02-18 08:28:14 51°9.654 2°36.586 266.3 1 216 18.3
2004-02-18 08:28:18 51°9.653 2°36.585 267.3 1 210 18
2004-02-18 08:28:24 51°9.652 2°36.583 266.3 1 225 17.6
2004-02-18 08:28:28 51°9.651 2°36.582 266.7 1 214 17.3
2004-02-18 08:28:34 51°9.65 2°36.581 266.7 0.9 223 17.5
2004-02-18 08:28:38 51°9.649 2°36.579 267 1 222 17.8
2004-02-18 08:28:44 51°9.648 2°36.578 267.4 0.9 218 18
2004-02-18 08:28:48 51°9.647 2°36.577 267.9 0.9 217 18.1
2004-02-18 08:28:54 51°9.646 2°36.575 268.3 0.9 221 18.1
2004-02-18 08:28:58 51°9.645 2°36.574 268.9 1 218 17.8
2004-02-18 08:29:04 51°9.644 2°36.572 269.6 1 221 17.6
2004-02-18 08:29:09 51°9.643 2°36.571 270.1 0.9 222 17.8
2004-02-18 08:29:13 51°9.642 2°36.57 270.7 0.8 216 17.9
2004-02-18 08:29:19 51°9.641 2°36.569 270.8 1 213 18
2004-02-18 08:29:24 51°9.64 2°36.567 270.1 1 218 17.9
2004-02-18 08:29:29 51°9.639 2°36.566 270.1 0.9 217 17.9
2004-02-18 08:29:34 51°9.638 2°36.565 270.8 1 218 17.6
2004-02-18 08:29:38 51°9.637 2°36.564 271.2 1.1 213 17.6
2004-02-18 08:29:44 51°9.636 2°36.562 271.5 1 220 17.7
2004-02-18 08:29:48 51°9.635 2°36.561 271.5 1 221 18
2004-02-18 08:29:53 51°9.634 2°36.56 272.7 0.9 221 18.1
2004-02-18 08:29:59 51°9.633 2°36.558 272.7 0.9 221 17.7
2004-02-18 08:30:04 51°9.632 2°36.557 272.8 0.9 223 17.6
2004-02-18 08:30:09 51°9.631 2°36.556 272.7 0.9 221 17.8
2004-02-18 08:30:14 51°9.63 2°36.555 272.8 0.9 222 18
2004-02-18 08:30:19 51°9.629 2°36.554 273 0.9 219 18.2
2004-02-18 08:30:24 51°9.628 2°36.552 273.5 1 216 18.1
2004-02-18 08:30:28 51°9.627 2°36.551 273.9 0.9 223 17.8
2004-02-18 08:30:34 51°9.627 2°36.55 274.2 0.8 216 17.7
2004-02-18 08:30:38 51°9.625 2°36.549 274.3 1 214 17.8
2004-02-18 08:30:44 51°9.624 2°36.547 275.1 1 211 17.9
2004-02-18 08:30:48 51°9.624 2°36.546 275.8 1.1 215 18
2004-02-18 08:30:54 51°9.623 2°36.545 276.4 0.9 216 17.9
2004-02-18 08:30:59 51°9.622 2°36.543 275.8 0.8 219 17.5
2004-02-18 08:31:04 51°9.621 2°36.542 275.3 0.7 217 17.5
2004-02-18 08:31:09 51°9.62 2°36.541 275.3 0.8 220 17.8
2004-02-18 08:31:14 51°9.618 2°36.54 275.3 0.8 220 18
2004-02-18 08:31:19 51°9.618 2°36.539 275.7 0.8 220 18.1
2004-02-18 08:31:24 51°9.617 2°36.538 276 0.7 224 18.3
2004-02-18 08:31:28 51°9.616 2°36.537 276.2 0.7 223 18.4
2004-02-18 08:31:34 51°9.615 2°36.536 276.4 1 211 18
2004-02-18 08:31:39 51°9.614 2°36.535 276.5 0.9 212 17.8
2004-02-18 08:31:44 51°9.613 2°36.534 276.3 1 210 17.7
2004-02-18 08:31:49 51°9.612 2°36.533 276.4 1 210 17.7
2004-02-18 08:31:54 51°9.612 2°36.532 276.5 0.7 209 17.8
2004-02-18 08:31:58 51°9.611 2°36.531 276.4 0.7 208 18
2004-02-18 08:32:04 51°9.609 2°36.53 276.2 0.8 210 18
2004-02-18 08:32:09 51°9.609 2°36.529 275.8 0.8 214 18
2004-02-18 08:32:13 51°9.608 2°36.528 275.9 0.8 217 17.7
2004-02-18 08:32:19 51°9.607 2°36.527 276 0.6 217 17.6
2004-02-18 08:32:24 51°9.606 2°36.527 276.3 0.7 216 17.7
2004-02-18 08:32:28 51°9.605 2°36.526 276.4 0.8 211 17.8
2004-02-18 08:32:34 51°9.604 2°36.525 276.5 0.7 213 18
2004-02-18 08:32:39 51°9.604 2°36.524 276.5 0.7 214 18
2004-02-18 08:32:44 51°9.603 2°36.523 276.2 0.8 217 18.1
2004-02-18 08:32:48 51°9.602 2°36.522 276.5 0.8 217 18
2004-02-18 08:32:54 51°9.601 2°36.521 276.8 0.8 210 17.7
2004-02-18 08:32:58 51°9.6 2°36.52 277.1 0.6 217 17.6
2004-02-18 08:33:04 51°9.599 2°36.519 276.9 0.9 209 17.6
2004-02-18 08:33:09 51°9.598 2°36.519 276.8 0.9 210 17.7
2004-02-18 08:33:14 51°9.598 2°36.518 277.2 0.5 212 17.7
2004-02-18 08:33:18 51°9.597 2°36.518 277.2 0.8 199 17.9
2004-02-18 08:33:24 51°9.596 2°36.517 277.4 0.7 207 17.9
2004-02-18 08:33:29 51°9.595 2°36.516 277.4 0.7 207 17.8
2004-02-18 08:33:33 51°9.594 2°36.516 277.9 0.7 203 17.6
2004-02-18 08:33:39 51°9.593 2°36.515 277.7 0.6 202 17.7
2004-02-18 08:33:44 51°9.592 2°36.514 277.5 1 199 17.7
2004-02-18 08:33:48 51°9.591 2°36.514 277 0.7 211 17.9
2004-02-18 08:33:54 51°9.59 2°36.513 276.8 0.7 211 17.8
2004-02-18 08:33:59 51°9.589 2°36.512 276.7 0.6 211 17.6
2004-02-18 08:34:04 51°9.588 2°36.511 276.6 0.9 203 17.5
2004-02-18 08:34:08 51°9.587 2°36.511 276.4 0.7 200 17.4
2004-02-18 08:34:14 51°9.586 2°36.51 276.5 0.7 200 17.4
2004-02-18 08:34:18 51°9.585 2°36.51 275.8 0.9 205 17.5
2004-02-18 08:34:24 51°9.584 2°36.509 275.6 0.8 196 17.7
2004-02-18 08:34:29 51°9.583 2°36.509 276.1 0.8 198 17.8
2004-02-18 08:34:34 51°9.582 2°36.508 276.4 0.7 199 17.9
2004-02-18 08:34:39 51°9.582 2°36.507 276.3 0.7 205 18.1
2004-02-18 08:34:44 51°9.58 2°36.507 275.8 0.6 204 18.1
2004-02-18 08:34:49 51°9.579 2°36.506 275.9 0.7 207 18
2004-02-18 08:34:54 51°9.578 2°36.505 276.7 0.6 207 17.7
2004-02-18 08:34:59 51°9.577 2°36.505 276.8 0.7 206 17.5
2004-02-18 08:35:04 51°9.577 2°36.504 277.1 0.8 201 17.4
2004-02-18 08:35:08 51°9.576 2°36.504 277.7 0.5 205 17.4
2004-02-18 08:35:14 51°9.575 2°36.503 277.4 0.7 195 17.5
2004-02-18 08:35:20 51°9.574 2°36.503 278.1 0.8 197 17.6
2004-02-18 08:35:24 51°9.574 2°36.502 278.6 0.7 199 17.8
2004-02-18 08:35:29 51°9.573 2°36.502 278.8 0.7 199 17.9
2004-02-18 08:35:34 51°9.572 2°36.501 279.1 0.6 204 18
2004-02-18 08:35:38 51°9.572 2°36.501 279.2 0.7 198 18
2004-02-18 08:35:44 51°9.571 2°36.5 279.4 0.8 198 17.9
2004-02-18 08:35:49 51°9.57 2°36.5 279.6 0.7 202 17.6
2004-02-18 08:35:54 51°9.569 2°36.499 279.9 0.7 202 17.5
2004-02-18 08:35:59 51°9.568 2°36.498 280.3 0.6 194 17.7
2004-02-18 08:36:04 51°9.566 2°36.498 280.9 0.7 188 17.8